»·PEaware :: N491H KRIV-KNZY

N491H :: KRIV-KNZY

FLIGHT INFORMATION

Flight Status: Arrived
Operator: Privately registered:
United States
More flights under this callsign
Pilot: Edward H. (2712)
Aircraft: CESSNA 172 SKYHAWK
(C172)
More flights by this aircraft type
Origin: KRIV March ARB
United States
Destination: KNZY North Island NAS
United States
More flights between these airports :: More routes between these airports
Route: +
File this flight plan on PilotEdge
Remarks:
Altitude:
(Current/Filed)
0ft
Speed:
(Current/Filed)
0kts
Departed: 25-Apr-18 09:25 AM
Arrived: 25-Apr-18 10:33 AM
Distance/Time
Traveled:
75nm/1:08
Distance/Time
To Go:
Arrived

Flight Plot

Page will automatically refresh every two minutes.


Map Options




Map Legend


Flown Route
Filed Route
Departure Airport
Arrival Airport
Navaid (VOR, NDB)
Fix

Horizontal Profiles

Position Reports

Time Latitude Longitude Heading Altitude Ground
Speed
25-Apr-18 09:17 33.887161 -117.250173 319 1539ft 0kts
25-Apr-18 09:18 33.887161 -117.250173 319 1539ft 0kts
25-Apr-18 09:19 33.887161 -117.250173 319 1539ft 0kts
25-Apr-18 09:20 33.885745 -117.250184 143 1539ft 23kts
25-Apr-18 09:21 33.880292 -117.249283 205 1539ft 16kts
25-Apr-18 09:22 33.875879 -117.251877 206 1539ft 5kts
25-Apr-18 09:23 33.873649 -117.253200 207 1539ft 0kts
25-Apr-18 09:24 33.876053 -117.256130 330 1539ft 64kts
25-Apr-18 09:25 33.894234 -117.271592 314 2102ft 82kts
25-Apr-18 09:26 33.881866 -117.275379 140 2680ft 86kts
25-Apr-18 09:27 33.862886 -117.259085 134 3296ft 84kts
25-Apr-18 09:28 33.849764 -117.234226 114 3731ft 99kts
25-Apr-18 09:29 33.818685 -117.228265 173 3552ft 129kts
25-Apr-18 09:30 33.786732 -117.218165 160 3490ft 113kts
25-Apr-18 09:31 33.757857 -117.206137 160 3490ft 110kts
25-Apr-18 09:32 33.730359 -117.194502 160 3491ft 104kts
25-Apr-18 09:33 33.703203 -117.182976 160 3491ft 103kts
25-Apr-18 09:34 33.676030 -117.171459 160 3492ft 103kts
25-Apr-18 09:35 33.649122 -117.160082 160 3492ft 103kts
25-Apr-18 09:36 33.622193 -117.148688 160 3491ft 103kts
25-Apr-18 09:37 33.595246 -117.137286 160 3491ft 103kts
25-Apr-18 09:38 33.567911 -117.129788 185 3492ft 103kts
25-Apr-18 09:39 33.539313 -117.134300 187 3494ft 103kts
25-Apr-18 09:40 33.510706 -117.139117 188 3496ft 104kts
25-Apr-18 09:41 33.482391 -117.143815 187 3497ft 104kts
25-Apr-18 09:42 33.449368 -117.149220 188 2767ft 132kts
25-Apr-18 09:43 33.424852 -117.157672 195 2818ft 126kts
25-Apr-18 09:44 33.398038 -117.157868 187 3502ft 56kts
25-Apr-18 09:45 33.380329 -117.161205 189 3964ft 63kts
25-Apr-18 09:46 33.355631 -117.165171 189 3998ft 116kts
25-Apr-18 09:47 33.323208 -117.170687 188 3994ft 126kts
25-Apr-18 09:48 33.288053 -117.176588 187 3993ft 129kts
25-Apr-18 09:49 33.252445 -117.182591 187 3992ft 129kts
25-Apr-18 09:50 33.217307 -117.188493 187 3992ft 125kts
25-Apr-18 09:51 33.183494 -117.194190 187 3942ft 126kts
25-Apr-18 09:52 33.149381 -117.199914 187 3751ft 129kts
25-Apr-18 09:53 33.113641 -117.205907 187 3552ft 130kts
25-Apr-18 09:54 33.079179 -117.211677 187 3492ft 124kts
25-Apr-18 09:55 33.047941 -117.216878 187 3685ft 112kts
25-Apr-18 09:56 33.018792 -117.221725 187 3951ft 105kts
25-Apr-18 09:57 32.988760 -117.226745 187 3815ft 130kts
25-Apr-18 09:58 32.956017 -117.232305 187 3517ft 115kts
25-Apr-18 09:59 32.925224 -117.237402 187 3495ft 110kts
25-Apr-18 10:00 32.895990 -117.242268 188 3495ft 114kts
25-Apr-18 10:01 32.865547 -117.247333 189 3494ft 115kts
25-Apr-18 10:02 32.835901 -117.248377 158 3364ft 114kts
25-Apr-18 10:03 32.810181 -117.233725 155 3338ft 106kts
25-Apr-18 10:04 32.782107 -117.216988 155 3396ft 122kts
25-Apr-18 10:05 32.753309 -117.202417 152 3472ft 117kts
25-Apr-18 10:06 32.726001 -117.182429 150 3401ft 123kts
25-Apr-18 10:07 32.697699 -117.161563 150 3402ft 120kts
25-Apr-18 10:08 32.669765 -117.140717 150 3405ft 119kts
25-Apr-18 10:09 32.645770 -117.122554 146 3407ft 120kts
25-Apr-18 10:10 32.616136 -117.113747 198 3252ft 123kts
25-Apr-18 10:11 32.627454 -117.139157 319 2643ft 117kts
25-Apr-18 10:12 32.648047 -117.158214 319 2238ft 84kts
25-Apr-18 10:32 32.698765 -117.210991 300 30ft 0kts
25-Apr-18 10:33 32.699755 -117.212840 300 30ft 13kts
25-Apr-18 10:34 32.699973 -117.214389 295 30ft 9kts
25-Apr-18 10:35 32.685641 -117.213417 136 724ft 74kts
25-Apr-18 10:36 32.663832 -117.219706 207 1086ft 93kts
25-Apr-18 10:37 32.643182 -117.227113 172 1814ft 110kts
25-Apr-18 10:38 32.624855 -117.195659 119 2080ft 129kts
25-Apr-18 10:39 32.608167 -117.157273 120 2032ft 128kts
25-Apr-18 10:40 32.586311 -117.129706 149 2035ft 117kts
25-Apr-18 10:41 32.571167 -117.100702 70 2034ft 122kts
25-Apr-18 10:42 32.582509 -117.064067 65 2030ft 120kts
25-Apr-18 10:43 32.594440 -117.027667 65 2026ft 117kts
25-Apr-18 10:44 32.606153 -116.992131 65 2027ft 123kts
25-Apr-18 10:45 32.630725 -116.976879 8 2516ft 112kts
25-Apr-18 10:46 32.660638 -116.971752 5 2517ft 113kts

Navigation Log

Ident Type
Flight plan parsing failed, navigation log unavailable